Time;durP1;ratioP1;P1;durP2;ratioP2;P2;SDS_P1;SDS_P2;PMS_P1;PMS_P2;Temp;Humidity;BMP_temperature;BMP_pressure;BME280_temperature;BME280_humidity;BME280_pressure;Samples;Min_cycle;Max_cycle;Signal;HPM_P1;HPM_P2
2021/11/13 00:01:17;;;;;;;33.78;16.73;;;7.30;95.60;;;;;;5052441;28;20017;-68
2021/11/13 00:03:43;;;;;;;32.10;15.88;;;7.20;95.50;;;;;;5051930;28;20580;-68
2021/11/13 00:06:08;;;;;;;30.08;16.73;;;7.20;95.50;;;;;;5051988;28;20037;-68
2021/11/13 00:08:34;;;;;;;31.27;16.13;;;7.20;95.50;;;;;;5051853;28;20037;-67
2021/11/13 00:11:00;;;;;;;34.72;17.45;;;7.20;95.60;;;;;;5051783;28;20025;-68
2021/11/13 00:13:25;;;;;;;32.85;16.58;;;7.20;95.60;;;;;;5051559;28;20383;-68
2021/11/13 00:15:52;;;;;;;34.20;17.60;;;7.20;95.60;;;;;;5052262;28;20090;-67
2021/11/13 00:18:18;;;;;;;30.13;15.63;;;7.30;95.60;;;;;;5051457;28;20037;-68
2021/11/13 00:20:44;;;;;;;29.23;15.98;;;7.30;95.60;;;;;;5051500;28;20473;-68
2021/11/13 00:23:10;;;;;;;31.55;16.27;;;7.20;95.60;;;;;;5051629;28;20700;-67
2021/11/13 00:25:36;;;;;;;30.98;16.48;;;7.20;95.60;;;;;;5051406;28;20331;-67
2021/11/13 00:28:02;;;;;;;36.10;17.20;;;7.20;95.80;;;;;;5050833;28;20040;-68
2021/11/13 00:30:28;;;;;;;30.40;16.35;;;7.20;95.70;;;;;;5051568;28;20028;-68
2021/11/13 00:32:54;;;;;;;31.67;16.40;;;7.20;95.80;;;;;;5051346;28;20751;-67
2021/11/13 00:35:20;;;;;;;33.42;16.77;;;7.20;95.80;;;;;;5051292;28;20033;-68
2021/11/13 00:37:46;;;;;;;35.50;16.80;;;7.20;95.80;;;;;;5050986;28;20481;-67
2021/11/13 00:40:15;;;;;;;30.50;15.43;;;7.20;95.80;;;;;;5050531;28;20028;-68
2021/11/13 00:42:42;;;;;;;33.10;16.33;;;7.20;95.80;;;;;;5051095;28;20112;-68
2021/11/13 00:45:08;;;;;;;32.60;15.80;;;7.30;95.80;;;;;;5051252;28;20435;-68
2021/11/13 00:47:34;;;;;;;33.55;16.08;;;7.30;95.70;;;;;;5051226;28;20268;-68
2021/11/13 00:50:00;;;;;;;31.60;15.40;;;7.30;95.70;;;;;;5051163;28;20021;-67
2021/11/13 00:52:25;;;;;;;28.55;15.38;;;7.30;95.60;;;;;;5051088;28;20506;-68
2021/11/13 00:54:51;;;;;;;29.02;14.93;;;7.30;95.70;;;;;;5051086;28;20120;-68
2021/11/13 00:57:17;;;;;;;31.40;15.25;;;7.30;95.50;;;;;;5050957;28;20026;-67
2021/11/13 00:59:42;;;;;;;30.15;15.55;;;7.30;95.50;;;;;;5050941;28;20039;-67
2021/11/13 01:02:08;;;;;;;28.45;15.02;;;7.30;95.50;;;;;;5050959;28;20029;-68
2021/11/13 01:04:36;;;;;;;30.50;14.65;;;7.30;95.50;;;;;;5050652;28;20100;-69
2021/11/13 01:07:02;;;;;;;32.85;15.20;;;7.20;95.60;;;;;;5051186;28;20021;-69
2021/11/13 01:09:28;;;;;;;31.85;15.90;;;7.30;95.70;;;;;;5050522;28;20033;-67
2021/11/13 01:11:55;;;;;;;34.08;15.75;;;7.30;95.60;;;;;;5050634;28;20078;-67
2021/11/13 01:14:20;;;;;;;31.35;15.90;;;7.20;95.60;;;;;;5050610;28;20128;-66
2021/11/13 01:16:46;;;;;;;27.95;14.93;;;7.20;95.70;;;;;;5050943;28;20124;-66
2021/11/13 01:19:13;;;;;;;28.27;14.38;;;7.30;95.80;;;;;;5051155;28;20021;-66
2021/11/13 01:21:39;;;;;;;30.33;14.98;;;7.10;95.80;;;;;;5050720;28;20022;-66
2021/11/13 01:24:05;;;;;;;32.70;17.10;;;7.10;95.80;;;;;;5050747;28;20035;-67
2021/11/13 01:26:31;;;;;;;26.63;14.13;;;7.20;95.80;;;;;;5050493;28;20056;-66
2021/11/13 01:28:56;;;;;;;29.23;14.75;;;7.20;95.70;;;;;;5050577;28;20053;-67
2021/11/13 01:31:22;;;;;;;29.92;14.82;;;7.20;95.70;;;;;;5050531;28;20029;-67
2021/11/13 01:33:48;;;;;;;30.30;14.82;;;7.20;95.80;;;;;;5051282;28;20027;-67
2021/11/13 01:36:13;;;;;;;27.17;13.00;;;7.30;95.70;;;;;;5050614;28;20086;-67
2021/11/13 01:38:40;;;;;;;29.15;14.70;;;7.30;95.70;;;;;;5050238;28;20037;-66
2021/11/13 01:41:06;;;;;;;24.42;13.18;;;7.30;95.60;;;;;;5050402;28;20469;-67
2021/11/13 01:43:34;;;;;;;26.92;13.65;;;7.40;95.60;;;;;;5050376;28;20032;-67
2021/11/13 01:46:02;;;;;;;24.48;12.75;;;7.30;95.50;;;;;;5050860;28;20324;-67
2021/11/13 01:48:29;;;;;;;23.92;12.48;;;7.40;95.50;;;;;;5050856;28;20361;-67
2021/11/13 01:50:55;;;;;;;27.00;12.70;;;7.30;95.50;;;;;;5050359;28;20033;-67
2021/11/13 01:53:21;;;;;;;21.55;12.05;;;7.40;95.50;;;;;;5050417;28;20025;-67
2021/11/13 01:55:46;;;;;;;22.58;12.27;;;7.40;95.40;;;;;;5050525;28;20029;-67
2021/11/13 01:58:13;;;;;;;24.20;12.95;;;7.50;95.40;;;;;;5050589;28;20029;-68
2021/11/13 02:00:48;;;;;;;18.38;9.90;;;7.50;95.40;;;;;;5050473;28;20021;-67
2021/11/13 02:03:14;;;;;;;21.75;11.55;;;7.50;95.20;;;;;;5050442;28;20021;-68
2021/11/13 02:05:40;;;;;;;23.02;11.95;;;7.50;95.20;;;;;;5051180;28;20040;-68
2021/11/13 02:08:07;;;;;;;19.42;11.10;;;7.50;95.20;;;;;;5054136;28;20029;-68
2021/11/13 02:10:33;;;;;;;21.00;11.00;;;7.60;95.40;;;;;;5053937;28;20028;-69
2021/11/13 02:12:59;;;;;;;19.63;10.65;;;7.60;95.10;;;;;;5054072;28;20037;-67
2021/11/13 02:15:26;;;;;;;20.95;10.23;;;7.60;94.90;;;;;;5054000;28;20044;-67
2021/11/13 02:17:52;;;;;;;21.65;10.68;;;7.70;94.90;;;;;;5053916;28;20116;-68
2021/11/13 02:20:31;;;;;;;16.30;9.45;;;7.60;94.80;;;;;;5053840;28;20079;-67
2021/11/13 02:23:00;;;;;;;17.92;9.43;;;7.70;94.80;;;;;;5052601;28;20025;-67
2021/11/13 02:25:28;;;;;;;20.65;10.20;;;7.70;94.80;;;;;;5053712;28;20021;-68
2021/11/13 02:27:54;;;;;;;20.13;9.88;;;7.70;94.70;;;;;;5054220;28;20463;-68
2021/11/13 02:30:21;;;;;;;19.27;9.40;;;7.70;94.70;;;;;;5054036;28;20207;-68
2021/11/13 02:32:47;;;;;;;19.08;10.30;;;7.80;94.70;;;;;;5053566;28;20443;-68
2021/11/13 02:35:15;;;;;;;18.27;9.63;;;7.80;94.60;;;;;;5056949;28;20032;-68
2021/11/13 02:37:42;;;;;;;20.45;9.85;;;7.70;94.60;;;;;;5072438;28;20044;-68
2021/11/13 02:40:09;;;;;;;19.85;9.60;;;7.80;94.60;;;;;;5073807;28;20035;-67
2021/11/13 02:42:35;;;;;;;15.57;9.60;;;7.80;94.50;;;;;;5073413;28;20041;-67
2021/11/13 02:45:03;;;;;;;18.00;9.88;;;7.80;94.50;;;;;;5073397;28;20533;-68
2021/11/13 02:47:30;;;;;;;;;;;7.80;94.50;;;;;;5073812;28;20359;-67
2021/11/13 02:49:56;;;;;;;15.45;8.73;;;7.90;94.40;;;;;;5073138;28;20354;-67
2021/11/13 02:52:21;;;;;;;15.52;8.35;;;7.90;94.50;;;;;;5073301;28;20044;-67
2021/11/13 02:54:50;;;;;;;18.17;9.10;;;7.80;94.40;;;;;;5072501;28;20029;-68
2021/11/13 02:57:16;;;;;;;16.52;8.55;;;7.80;94.60;;;;;;5073008;28;20109;-67
2021/11/13 02:59:46;;;;;;;17.00;9.57;;;7.80;94.60;;;;;;5073177;28;20465;-67
2021/11/13 03:02:12;;;;;;;19.35;9.88;;;7.90;94.70;;;;;;5072191;28;20074;-68
2021/11/13 03:04:38;;;;;;;17.50;9.95;;;7.90;94.70;;;;;;5072925;28;20377;-68
2021/11/13 03:07:06;;;;;;;20.42;9.80;;;7.90;94.80;;;;;;5073759;28;20581;-67
2021/11/13 03:09:32;;;;;;;20.55;11.13;;;7.80;94.80;;;;;;5072860;28;20485;-68
2021/11/13 03:11:58;;;;;;;18.42;10.68;;;7.90;94.80;;;;;;5072679;28;20033;-67
2021/11/13 03:14:24;;;;;;;22.27;11.95;;;7.90;94.90;;;;;;5072763;28;20532;-68
2021/11/13 03:16:50;;;;;;;18.40;10.55;;;7.80;94.80;;;;;;5072541;28;20039;-68
2021/11/13 03:19:16;;;;;;;19.65;10.80;;;7.80;94.80;;;;;;5073588;28;20028;-68
2021/11/13 03:21:42;;;;;;;19.67;10.75;;;7.80;95.00;;;;;;5072753;28;20484;-68
2021/11/13 03:24:08;;;;;;;20.52;11.20;;;7.70;95.00;;;;;;5072438;28;20024;-68
2021/11/13 03:26:34;;;;;;;21.38;10.40;;;7.80;95.10;;;;;;5072545;28;20062;-68
2021/11/13 03:29:11;;;;;;;20.00;11.18;;;7.80;95.10;;;;;;5072478;28;20029;-67
2021/11/13 03:31:36;;;;;;;23.30;10.93;;;7.70;95.00;;;;;;5072581;28;20045;-67
2021/11/13 03:34:05;;;;;;;21.95;11.40;;;7.80;95.40;;;;;;5072893;28;20063;-67
2021/11/13 03:36:32;;;;;;;22.20;11.05;;;7.70;95.00;;;;;;5072320;28;20061;-68
2021/11/13 03:38:58;;;;;;;19.83;10.40;;;7.70;95.10;;;;;;5072492;28;20035;-68
2021/11/13 03:41:23;;;;;;;20.15;10.82;;;7.70;95.10;;;;;;5072271;28;20051;-68
2021/11/13 03:43:49;;;;;;;20.20;11.05;;;7.80;95.10;;;;;;5072233;28;20396;-67
2021/11/13 03:46:15;;;;;;;21.85;10.35;;;7.70;95.10;;;;;;5072822;28;20021;-68
2021/11/13 03:48:42;;;;;;;19.25;10.70;;;7.70;95.10;;;;;;5072116;28;20112;-67
2021/11/13 03:51:09;;;;;;;18.10;10.35;;;7.70;95.10;;;;;;5072185;28;20370;-68
2021/11/13 03:53:34;;;;;;;19.40;10.38;;;7.70;95.10;;;;;;5072221;28;20378;-68
2021/11/13 03:56:00;;;;;;;20.67;11.18;;;7.70;95.10;;;;;;5072060;28;20033;-68
2021/11/13 03:58:26;;;;;;;18.35;10.25;;;7.70;95.00;;;;;;5071907;28;20032;-68
2021/11/13 04:00:52;;;;;;;22.02;11.02;;;7.70;95.10;;;;;;5072446;28;20021;-67
2021/11/13 04:03:18;;;;;;;19.80;11.35;;;7.70;95.00;;;;;;5071691;28;20033;-68
2021/11/13 04:05:44;;;;;;;21.23;11.32;;;7.70;95.00;;;;;;5071904;28;20450;-68
2021/11/13 04:08:10;;;;;;;20.60;11.00;;;7.60;95.00;;;;;;5071843;28;20024;-68
2021/11/13 04:10:35;;;;;;;22.27;11.43;;;7.60;95.00;;;;;;5071685;28;20032;-69
2021/11/13 04:13:01;;;;;;;18.60;10.73;;;7.60;95.20;;;;;;5071849;28;20136;-68
2021/11/13 04:15:27;;;;;;;22.77;11.63;;;7.50;95.10;;;;;;5071783;28;20504;-66
2021/11/13 04:17:53;;;;;;;19.95;10.73;;;7.50;95.20;;;;;;5071460;28;20208;-67
2021/11/13 04:20:20;;;;;;;21.15;11.77;;;7.40;95.20;;;;;;5071736;28;20082;-67
2021/11/13 04:22:48;;;;;;;21.00;11.07;;;7.40;95.40;;;;;;5071588;28;20146;-67
2021/11/13 04:25:14;;;;;;;21.63;10.85;;;7.30;95.30;;;;;;5071943;28;20032;-68
2021/11/13 04:27:40;;;;;;;20.67;10.95;;;7.30;95.40;;;;;;5071452;28;20032;-68
2021/11/13 04:30:08;;;;;;;21.45;11.13;;;7.40;95.40;;;;;;5070872;28;20036;-68
2021/11/13 04:32:36;;;;;;;22.02;10.95;;;7.40;95.40;;;;;;5071372;28;20044;-68
2021/11/13 04:35:14;;;;;;;;;;;7.50;95.20;;;;;;5071851;28;20478;-68
2021/11/13 04:37:39;;;;;;;21.60;11.05;;;7.40;95.20;;;;;;5071254;28;19912;-68
2021/11/13 04:40:06;;;;;;;19.17;10.38;;;7.40;95.20;;;;;;5071664;28;20078;-69
2021/11/13 04:42:31;;;;;;;22.02;11.38;;;7.40;95.20;;;;;;5071289;28;20466;-67
2021/11/13 04:44:57;;;;;;;22.67;10.65;;;7.30;95.30;;;;;;5071253;28;20039;-67
2021/11/13 04:47:23;;;;;;;20.95;10.43;;;7.30;95.30;;;;;;5070108;28;20063;-67
2021/11/13 04:49:48;;;;;;;24.83;12.45;;;7.20;95.40;;;;;;5069809;28;20020;-66
2021/11/13 04:52:14;;;;;;;23.40;12.27;;;7.30;95.50;;;;;;5070527;28;20051;-67
2021/11/13 04:54:40;;;;;;;19.20;10.48;;;7.30;95.50;;;;;;5071188;28;20093;-68
2021/11/13 04:57:06;;;;;;;18.80;10.43;;;7.30;95.40;;;;;;5070975;28;20032;-68
2021/11/13 04:59:32;;;;;;;21.88;10.70;;;7.40;95.40;;;;;;5071092;28;20103;-68
2021/11/13 05:01:58;;;;;;;19.48;9.80;;;7.30;95.30;;;;;;5071107;28;20401;-66
2021/11/13 05:04:24;;;;;;;17.95;10.23;;;7.30;95.30;;;;;;5069893;28;20113;-67
2021/11/13 05:06:49;;;;;;;20.38;10.60;;;7.40;95.30;;;;;;5071306;28;20102;-67
2021/11/13 05:09:15;;;;;;;19.42;10.27;;;7.40;95.40;;;;;;5070879;28;20029;-69
2021/11/13 05:11:41;;;;;;;18.13;10.38;;;7.40;95.30;;;;;;5071048;28;20135;-66
2021/11/13 05:14:07;;;;;;;18.55;10.75;;;7.40;95.30;;;;;;5070805;28;20044;-67
2021/11/13 05:16:32;;;;;;;21.63;11.30;;;7.40;95.30;;;;;;5070736;28;20029;-68
2021/11/13 05:18:58;;;;;;;17.80;9.98;;;7.40;95.30;;;;;;5071210;28;20032;-67
2021/11/13 05:21:23;;;;;;;21.48;10.10;;;7.40;95.20;;;;;;5070707;28;20036;-67
2021/11/13 05:23:49;;;;;;;20.60;10.32;;;7.50;95.20;;;;;;5070746;28;20119;-67
2021/11/13 05:26:14;;;;;;;18.05;9.93;;;7.50;95.20;;;;;;5070847;28;20048;-67
2021/11/13 05:28:43;;;;;;;18.23;10.32;;;7.50;95.20;;;;;;5070844;28;20036;-67
2021/11/13 05:31:10;;;;;;;18.20;10.38;;;7.60;95.20;;;;;;5071271;28;20032;-67
2021/11/13 05:33:36;;;;;;;17.23;9.52;;;7.50;95.20;;;;;;5070952;28;20039;-67
2021/11/13 05:36:02;;;;;;;20.50;9.98;;;7.60;95.20;;;;;;5070472;28;20021;-67
2021/11/13 05:38:27;;;;;;;19.17;9.98;;;7.60;95.20;;;;;;5070945;28;20036;-67
2021/11/13 05:40:53;;;;;;;17.90;9.77;;;7.70;95.10;;;;;;5073434;28;20028;-68
2021/11/13 05:43:19;;;;;;;17.70;10.40;;;7.70;95.10;;;;;;5074971;28;20517;-68
2021/11/13 05:45:47;;;;;;;17.80;9.88;;;7.70;95.00;;;;;;5074701;28;20036;-68
2021/11/13 05:48:14;;;;;;;19.17;9.90;;;7.70;95.00;;;;;;5074606;28;20029;-68
2021/11/13 05:50:39;;;;;;;17.30;9.50;;;7.70;95.10;;;;;;5074257;28;20478;-68
2021/11/13 05:53:05;;;;;;;20.15;9.95;;;7.70;95.00;;;;;;5074426;28;20039;-68
2021/11/13 05:55:31;;;;;;;18.70;10.45;;;7.70;95.00;;;;;;5074377;28;20028;-67
2021/11/13 05:57:59;;;;;;;21.67;10.65;;;7.70;95.20;;;;;;5074772;28;20074;-68
2021/11/13 06:00:26;;;;;;;20.33;9.82;;;7.70;95.20;;;;;;5074129;28;20048;-69
2021/11/13 06:02:52;;;;;;;18.67;9.70;;;7.80;95.20;;;;;;5074148;28;20025;-68
2021/11/13 06:05:18;;;;;;;19.20;10.35;;;7.70;95.30;;;;;;5073987;28;20059;-68
2021/11/13 06:07:44;;;;;;;18.40;9.65;;;7.70;95.40;;;;;;5074075;28;20051;-67
2021/11/13 06:10:12;;;;;;;19.67;9.60;;;7.70;95.40;;;;;;5074492;28;20025;-70
2021/11/13 06:12:38;;;;;;;20.83;10.40;;;7.70;95.50;;;;;;5073977;28;20048;-68
2021/11/13 06:15:04;;;;;;;21.77;10.13;;;7.70;95.60;;;;;;5073786;28;20040;-67
2021/11/13 06:17:30;;;;;;;19.02;10.88;;;7.70;95.60;;;;;;5073828;28;20029;-67
2021/11/13 06:19:56;;;;;;;16.67;9.30;;;7.70;95.80;;;;;;5074065;28;20138;-68
2021/11/13 06:22:22;;;;;;;20.73;10.50;;;7.70;95.90;;;;;;5073760;28;20021;-67
2021/11/13 06:24:48;;;;;;;16.83;9.43;;;7.70;96.10;;;;;;5074244;28;20051;-67
2021/11/13 06:27:15;;;;;;;17.95;9.77;;;7.70;96.10;;;;;;5072709;28;20036;-68
2021/11/13 06:29:42;;;;;;;16.63;9.02;;;7.70;96.20;;;;;;5073665;28;20455;-67
2021/11/13 06:32:07;;;;;;;18.52;9.57;;;7.70;96.30;;;;;;5073629;28;20036;-67
2021/11/13 06:34:33;;;;;;;19.17;10.90;;;7.70;96.30;;;;;;5073475;28;20027;-67
2021/11/13 06:36:59;;;;;;;21.73;10.95;;;7.70;96.80;;;;;;5073895;28;20029;-67
2021/11/13 06:39:24;;;;;;;18.33;10.18;;;7.70;96.90;;;;;;5074098;28;20046;-67
2021/11/13 06:41:50;;;;;;;21.02;10.27;;;7.70;96.90;;;;;;5073483;28;20056;-67
2021/11/13 06:44:16;;;;;;;21.23;10.55;;;7.70;97.10;;;;;;5072554;28;20111;-67
2021/11/13 06:46:41;;;;;;;19.38;10.60;;;7.60;97.30;;;;;;5073402;28;20086;-67
2021/11/13 06:49:07;;;;;;;21.38;11.23;;;7.70;97.40;;;;;;5073843;28;20056;-67
2021/11/13 06:51:33;;;;;;;26.20;10.20;;;7.70;97.40;;;;;;5072774;28;20017;-67
2021/11/13 06:53:59;;;;;;;20.70;11.10;;;7.60;97.30;;;;;;5073170;28;20110;-68
2021/11/13 06:56:25;;;;;;;21.60;11.63;;;7.60;97.40;;;;;;5072138;28;20025;-68
2021/11/13 06:58:51;;;;;;;21.42;11.10;;;7.60;97.50;;;;;;5070038;28;20115;-68
2021/11/13 07:01:17;;;;;;;20.10;11.00;;;7.60;97.60;;;;;;5074002;28;20024;-67
2021/11/13 07:03:43;;;;;;;22.27;11.00;;;7.50;97.60;;;;;;5073317;28;20060;-68
2021/11/13 07:06:09;;;;;;;24.67;11.65;;;7.60;97.70;;;;;;5073375;28;20029;-68
2021/11/13 07:08:34;;;;;;;19.90;11.02;;;7.60;97.80;;;;;;5073270;28;20052;-68
2021/11/13 07:11:00;;;;;;;22.55;11.27;;;7.50;97.90;;;;;;5060054;28;20033;-67
2021/11/13 07:13:27;;;;;;;22.75;11.63;;;7.60;97.90;;;;;;5052786;28;20057;-67
2021/11/13 07:15:52;;;;;;;20.02;10.73;;;7.60;98.00;;;;;;5053697;28;20029;-68
2021/11/13 07:18:18;;;;;;;26.60;12.82;;;7.70;98.00;;;;;;5053049;28;20037;-69
2021/11/13 07:20:56;;;;;;;19.98;10.93;;;7.70;98.10;;;;;;5053073;28;20129;-69
2021/11/13 07:23:21;;;;;;;23.70;12.77;;;7.60;98.00;;;;;;5052679;28;20032;-67
2021/11/13 07:25:48;;;;;;;23.35;11.75;;;7.70;98.10;;;;;;5053031;28;20024;-68
2021/11/13 07:28:15;;;;;;;23.88;11.73;;;7.60;98.10;;;;;;5052963;28;20447;-69
2021/11/13 07:30:44;;;;;;;22.35;11.57;;;7.70;98.10;;;;;;5052832;28;20036;-68
2021/11/13 07:33:10;;;;;;;20.48;11.05;;;7.70;98.10;;;;;;5051882;28;20056;-68
2021/11/13 07:35:37;;;;;;;22.02;11.13;;;7.70;98.20;;;;;;5052591;28;20040;-68
2021/11/13 07:38:04;;;;;;;22.17;11.80;;;7.70;98.20;;;;;;5052614;28;20175;-68
2021/11/13 07:40:30;;;;;;;20.65;11.82;;;7.70;98.20;;;;;;5052973;28;20020;-68
2021/11/13 07:42:56;;;;;;;24.35;11.50;;;7.70;98.10;;;;;;5052728;28;20182;-68
2021/11/13 07:45:21;;;;;;;20.65;11.88;;;7.60;98.10;;;;;;5052520;28;20486;-67
2021/11/13 07:47:47;;;;;;;23.77;11.93;;;7.60;98.40;;;;;;5051603;28;20466;-68
2021/11/13 07:50:15;;;;;;;25.40;12.38;;;7.60;98.20;;;;;;5052162;28;20025;-67
2021/11/13 07:52:42;;;;;;;28.95;12.10;;;7.60;98.30;;;;;;5052471;28;20047;-68
2021/11/13 07:55:08;;;;;;;22.60;11.67;;;7.60;98.40;;;;;;5051867;28;20402;-68
2021/11/13 07:57:34;;;;;;;24.85;12.52;;;7.60;98.50;;;;;;5052011;28;20056;-68
2021/11/13 08:00:00;;;;;;;22.88;11.65;;;7.50;98.50;;;;;;5052098;28;20525;-68
2021/11/13 08:02:26;;;;;;;22.95;11.77;;;7.60;98.60;;;;;;5052020;28;20385;-68
2021/11/13 08:04:53;;;;;;;28.00;12.32;;;7.60;98.60;;;;;;5050989;28;20063;-67
2021/11/13 08:07:19;;;;;;;23.17;11.55;;;7.60;98.60;;;;;;5052666;28;20029;-68
2021/11/13 08:09:45;;;;;;;25.70;13.27;;;7.60;98.50;;;;;;5051823;28;20033;-68
2021/11/13 08:12:10;;;;;;;25.08;12.93;;;7.50;98.50;;;;;;5051536;28;20029;-67
2021/11/13 08:14:36;;;;;;;27.63;14.43;;;7.50;98.60;;;;;;5052130;28;20145;-68
2021/11/13 08:17:02;;;;;;;24.58;12.63;;;7.60;98.60;;;;;;5051749;28;20136;-68
2021/11/13 08:19:27;;;;;;;23.58;12.88;;;7.60;98.50;;;;;;5051588;28;20103;-70
2021/11/13 08:21:53;;;;;;;23.42;12.15;;;7.60;98.50;;;;;;5052155;28;20023;-68
2021/11/13 08:24:20;;;;;;;23.38;12.13;;;7.70;98.60;;;;;;5051565;28;20545;-68
2021/11/13 08:26:47;;;;;;;21.47;11.00;;;7.60;98.60;;;;;;5051919;28;20128;-68
2021/11/13 08:29:13;;;;;;;24.45;11.57;;;7.60;98.50;;;;;;5051269;28;20029;-68
2021/11/13 08:31:38;;;;;;;22.88;11.73;;;7.70;98.60;;;;;;5051346;28;20064;-67
2021/11/13 08:34:04;;;;;;;22.55;11.65;;;7.60;98.50;;;;;;5050785;28;20064;-68
2021/11/13 08:36:30;;;;;;;24.63;12.32;;;7.70;98.50;;;;;;5051716;28;20029;-69
2021/11/13 08:38:56;;;;;;;31.27;14.60;;;7.70;98.40;;;;;;5051227;28;20551;-68
2021/11/13 08:41:22;;;;;;;26.42;14.55;;;7.70;98.60;;;;;;5051219;28;20044;-68
2021/11/13 08:43:51;;;;;;;21.50;12.32;;;7.70;98.60;;;;;;5051044;28;20041;-68
2021/11/13 08:46:18;;;;;;;26.20;11.40;;;7.70;98.60;;;;;;5051889;28;20086;-69
2021/11/13 08:48:45;;;;;;;23.75;12.63;;;7.80;98.70;;;;;;5051220;28;20029;-68
2021/11/13 08:51:11;;;;;;;23.27;11.48;;;7.90;98.60;;;;;;5051072;28;20032;-69
2021/11/13 08:53:37;;;;;;;21.23;11.52;;;7.90;98.50;;;;;;5051025;28;20033;-69
2021/11/13 08:56:03;;;;;;;24.25;11.02;;;7.90;98.40;;;;;;5050942;28;20033;-68
2021/11/13 08:58:29;;;;;;;20.60;11.63;;;7.90;98.40;;;;;;5050840;28;20409;-69
2021/11/13 09:00:56;;;;;;;22.48;10.85;;;8.00;98.40;;;;;;5051482;28;20059;-70
2021/11/13 09:03:29;;;;;;;21.45;11.18;;;7.90;98.40;;;;;;5050905;28;20417;-70
2021/11/13 09:05:55;;;;;;;22.50;11.48;;;8.00;98.60;;;;;;5051165;28;20151;-70
2021/11/13 09:08:22;;;;;;;22.10;11.32;;;8.10;98.60;;;;;;5050165;28;20021;-68
2021/11/13 09:10:49;;;;;;;18.30;10.25;;;8.10;98.50;;;;;;5050844;28;20035;-68
2021/11/13 09:13:15;;;;;;;22.75;10.88;;;8.10;98.40;;;;;;5050427;28;20048;-68
2021/11/13 09:15:42;;;;;;;23.02;12.05;;;8.20;98.50;;;;;;5050197;28;20556;-69
2021/11/13 09:18:09;;;;;;;20.65;11.07;;;8.20;98.20;;;;;;5050456;28;20077;-70
2021/11/13 09:20:36;;;;;;;25.90;11.40;;;8.20;98.30;;;;;;5050720;28;20490;-70
2021/11/13 09:23:03;;;;;;;20.95;11.07;;;8.20;98.50;;;;;;5050519;28;20029;-71
2021/11/13 09:25:29;;;;;;;20.02;10.50;;;8.30;98.60;;;;;;5050686;28;20021;-69
2021/11/13 09:27:55;;;;;;;23.90;11.25;;;8.30;98.50;;;;;;5050835;28;20043;-68
2021/11/13 09:30:24;;;;;;;18.92;10.25;;;8.40;98.50;;;;;;5050561;28;20116;-69
2021/11/13 09:32:50;;;;;;;22.80;10.93;;;8.40;98.40;;;;;;5050680;28;20513;-68
2021/11/13 09:35:17;;;;;;;22.08;10.70;;;8.30;98.50;;;;;;5050527;28;20351;-68
2021/11/13 09:37:46;;;;;;;23.23;10.40;;;8.30;98.50;;;;;;5050396;28;20056;-67
2021/11/13 09:40:15;;;;;;;24.20;10.80;;;8.30;98.40;;;;;;5050966;28;20029;-67
2021/11/13 09:42:42;;;;;;;20.00;10.88;;;8.40;98.30;;;;;;5050479;28;20471;-67
2021/11/13 09:45:08;;;;;;;18.80;9.33;;;8.40;98.30;;;;;;5050361;28;20417;-68
2021/11/13 09:47:34;;;;;;;15.90;9.65;;;8.40;98.30;;;;;;5050714;28;20025;-68
2021/11/13 09:50:01;;;;;;;20.27;9.68;;;8.40;98.20;;;;;;5050647;28;20037;-68
2021/11/13 09:52:27;;;;;;;20.25;10.35;;;8.40;98.30;;;;;;5050531;28;20035;-66
2021/11/13 09:54:53;;;;;;;19.23;9.95;;;8.40;98.20;;;;;;5050828;28;20405;-66
2021/11/13 09:57:19;;;;;;;16.92;9.50;;;8.50;98.20;;;;;;5050323;28;20033;-68
2021/11/13 09:59:44;;;;;;;19.70;9.60;;;8.60;98.30;;;;;;5050741;28;20120;-68
2021/11/13 10:02:11;;;;;;;17.98;9.65;;;8.60;98.30;;;;;;5050324;28;20026;-68
2021/11/13 10:04:37;;;;;;;21.20;9.15;;;8.70;98.20;;;;;;5050456;28;20095;-67
2021/11/13 10:07:03;;;;;;;21.95;9.75;;;8.70;98.10;;;;;;5050792;28;20025;-68
2021/11/13 10:09:28;;;;;;;17.90;9.77;;;8.70;98.30;;;;;;5050391;28;20112;-69
2021/11/13 10:11:54;;;;;;;22.00;10.30;;;8.70;98.30;;;;;;5050426;28;20148;-71
2021/11/13 10:14:41;;;;;;;23.55;10.75;;;8.80;98.20;;;;;;5050163;28;20052;-67
2021/11/13 10:17:25;;;;;;;19.70;10.77;;;8.90;98.20;;;;;;5050544;28;20040;-67
2021/11/13 10:19:51;;;;;;;20.15;10.40;;;8.90;98.20;;;;;;5050316;28;20171;-66
2021/11/13 10:22:18;;;;;;;18.00;9.93;;;8.80;97.90;;;;;;5050733;28;20013;-67
2021/11/13 10:24:50;;;;;;;18.80;9.38;;;8.80;98.00;;;;;;5050428;28;20029;-67
2021/11/13 10:27:15;;;;;;;17.23;9.60;;;8.80;98.00;;;;;;5051716;28;20467;-67
2021/11/13 10:29:44;;;;;;;17.30;10.07;;;8.80;97.90;;;;;;5053980;28;20060;-67
2021/11/13 10:32:11;;;;;;;;;;;8.90;98.10;;;;;;5054551;28;20399;-67
2021/11/13 10:34:41;;;;;;;18.67;9.82;;;9.00;98.10;;;;;;5053976;28;20010;-67
2021/11/13 10:37:21;;;;;;;19.13;9.88;;;8.90;98.00;;;;;;5054236;28;20039;-68
2021/11/13 10:39:48;;;;;;;19.83;9.75;;;9.00;98.20;;;;;;5054109;28;20487;-68
2021/11/13 10:42:22;;;;;;;18.65;10.25;;;9.00;98.20;;;;;;5053268;28;20044;-67
2021/11/13 10:44:50;;;;;;;19.38;10.48;;;9.00;98.00;;;;;;5053676;28;20047;-67
2021/11/13 10:47:20;;;;;;;18.80;10.10;;;8.90;97.90;;;;;;5053950;28;20108;-67
2021/11/13 10:49:49;;;;;;;16.85;9.38;;;9.00;98.00;;;;;;5053439;28;20033;-68
2021/11/13 10:52:16;;;;;;;18.08;10.07;;;9.00;97.90;;;;;;5053859;28;20470;-67
2021/11/13 10:54:45;;;;;;;20.70;10.13;;;8.90;97.70;;;;;;5053239;28;20029;-67
2021/11/13 10:57:11;;;;;;;19.05;9.38;;;9.00;97.90;;;;;;5052932;28;20203;-66
2021/11/13 10:59:40;;;;;;;17.30;9.82;;;9.00;98.00;;;;;;5053332;28;20029;-67
2021/11/13 11:02:12;;;;;;;19.73;10.00;;;9.00;98.00;;;;;;5053076;28;20694;-67
2021/11/13 11:04:40;;;;;;;16.23;9.20;;;9.00;97.90;;;;;;5053204;28;20103;-67
2021/11/13 11:07:08;;;;;;;18.23;9.85;;;9.00;97.90;;;;;;5053602;28;20438;-69
2021/11/13 11:09:35;;;;;;;14.98;9.18;;;9.00;97.90;;;;;;5052903;28;20033;-67
2021/11/13 11:12:21;;;;;;;15.80;9.10;;;9.10;98.10;;;;;;5052764;28;20052;-68
2021/11/13 11:14:50;;;;;;;20.23;9.68;;;9.20;98.00;;;;;;5052002;28;20410;-67
2021/11/13 11:17:22;;;;;;;18.15;9.35;;;9.20;97.80;;;;;;5052802;28;20044;-67
2021/11/13 11:19:51;;;;;;;18.63;9.38;;;9.30;97.80;;;;;;5052874;28;20354;-75
2021/11/13 11:22:24;;;;;;;16.50;9.40;;;9.40;97.80;;;;;;5052262;28;20178;-68
2021/11/13 11:24:57;;;;;;;18.63;9.35;;;9.40;97.80;;;;;;5053318;28;20123;-68
2021/11/13 11:27:35;;;;;;;15.68;8.88;;;9.50;97.70;;;;;;5052701;28;20040;-67
2021/11/13 11:30:11;;;;;;;16.15;8.88;;;9.40;97.70;;;;;;5052647;28;20030;-69
2021/11/13 11:32:59;;;;;;;18.48;10.25;;;9.40;97.90;;;;;;5052571;28;20047;-69
2021/11/13 11:35:29;;;;;;;;;;;9.40;97.80;;;;;;5053011;28;20469;-68
2021/11/13 11:38:13;;;;;;;17.52;8.73;;;9.40;97.70;;;;;;5052119;28;19981;-69
2021/11/13 11:40:44;;;;;;;15.68;8.93;;;9.30;97.70;;;;;;5052493;28;20029;-68
2021/11/13 11:43:12;;;;;;;19.13;10.40;;;9.30;97.80;;;;;;5052444;28;20029;-68
2021/11/13 11:45:39;;;;;;;;;;;9.30;97.80;;;;;;5052686;28;20033;-68
2021/11/13 11:48:12;;;;;;;17.77;8.60;;;9.30;97.70;;;;;;5052296;28;19919;-69
2021/11/13 11:50:38;;;;;;;17.05;8.98;;;9.30;97.80;;;;;;5052096;28;20426;-69
2021/11/13 11:53:09;;;;;;;17.85;8.85;;;9.20;97.80;;;;;;5052049;28;20033;-69
2021/11/13 11:55:36;;;;;;;19.10;8.88;;;9.30;98.00;;;;;;5052147;28;20316;-69
2021/11/13 11:58:10;;;;;;;14.40;9.23;;;9.30;98.10;;;;;;5052212;28;20027;-69
2021/11/13 12:00:39;;;;;;;19.90;10.27;;;9.30;98.00;;;;;;5052074;28;20436;-68
2021/11/13 12:03:05;;;;;;;15.43;8.40;;;9.30;98.00;;;;;;5051667;28;20522;-69
2021/11/13 12:05:34;;;;;;;14.45;8.77;;;9.30;98.10;;;;;;5051752;28;20036;-69
2021/11/13 12:08:18;;;;;;;18.77;9.48;;;9.30;98.20;;;;;;5051674;28;20462;-68
2021/11/13 12:10:45;;;;;;;16.75;8.85;;;9.20;98.20;;;;;;5051958;28;20048;-69
2021/11/13 12:13:13;;;;;;;16.63;8.73;;;9.30;98.30;;;;;;5052337;28;20045;-68
2021/11/13 12:15:47;;;;;;;16.73;8.52;;;9.30;98.40;;;;;;5051698;28;20040;-69
2021/11/13 12:18:20;;;;;;;17.50;9.23;;;9.30;98.40;;;;;;5051458;28;20578;-68
2021/11/13 12:20:52;;;;;;;15.40;8.93;;;9.20;98.50;;;;;;5051672;28;20107;-68
2021/11/13 12:23:35;;;;;;;16.13;9.15;;;9.20;98.60;;;;;;5051672;28;20021;-68
2021/11/13 12:26:13;;;;;;;19.05;9.93;;;9.30;98.80;;;;;;5051579;28;20359;-67
2021/11/13 12:28:45;;;;;;;15.15;9.13;;;9.30;98.90;;;;;;5051639;28;20059;-68
2021/11/13 12:31:23;;;;;;;16.38;9.40;;;9.30;99.00;;;;;;5052006;28;20032;-69
2021/11/13 12:33:51;;;;;;;;;;;9.50;99.10;;;;;;5051910;28;20036;-69
2021/11/13 12:36:24;;;;;;;20.80;9.80;;;9.40;99.10;;;;;;5051540;28;19964;-71
2021/11/13 12:38:56;;;;;;;16.98;10.15;;;9.40;99.40;;;;;;5051422;28;20056;-68
2021/11/13 12:41:25;;;;;;;21.17;10.68;;;9.40;99.10;;;;;;5051335;28;20063;-68